Time;durP1;ratioP1;P1;durP2;ratioP2;P2;SDS_P1;SDS_P2;PMS_P1;PMS_P2;Temp;Humidity;BMP_temperature;BMP_pressure;BME280_temperature;BME280_humidity;BME280_pressure;Samples;Min_cycle;Max_cycle;Signal;HPM_P1;HPM_P2
2022/11/16 00:01:32;;;;;;;73.40;36.80;;;8.00;99.90;;;;;;4394659;28;661691;-64
2022/11/16 00:04:20;;;;;;;71.03;37.93;;;8.00;99.90;;;;;;4390268;28;659767;-66
2022/11/16 00:07:07;;;;;;;88.07;42.13;;;8.00;99.90;;;;;;4400298;28;660669;-64
2022/11/16 00:09:54;;;;;;;70.80;33.87;;;8.00;99.90;;;;;;4395860;28;659251;-64
2022/11/16 00:12:43;;;;;;;71.20;35.70;;;7.80;99.90;;;;;;4377595;28;660212;-63
2022/11/16 00:15:30;;;;;;;79.82;37.88;;;7.90;99.90;;;;;;4382166;28;659577;-65
2022/11/16 00:18:17;;;;;;;78.57;39.03;;;7.90;99.90;;;;;;4400188;28;659625;-64
2022/11/16 00:21:05;;;;;;;76.93;36.07;;;7.90;99.90;;;;;;4395690;28;660321;-64
2022/11/16 00:23:52;;;;;;;76.80;35.97;;;8.00;99.90;;;;;;4373369;28;661288;-64
2022/11/16 00:26:39;;;;;;;78.00;37.27;;;7.90;99.90;;;;;;4396204;28;660032;-65
2022/11/16 00:29:27;;;;;;;79.90;40.28;;;8.00;99.90;;;;;;4377140;28;659784;-65
2022/11/16 00:32:15;;;;;;;75.57;38.27;;;8.00;99.90;;;;;;4391904;28;659989;-66
2022/11/16 00:35:02;;;;;;;78.57;38.97;;;8.00;99.90;;;;;;4399729;28;659323;-64
2022/11/16 00:37:50;;;;;;;81.43;38.47;;;8.00;99.90;;;;;;4395795;28;660008;-64
2022/11/16 00:40:37;;;;;;;76.17;37.47;;;8.00;99.90;;;;;;4373032;28;661544;-64
2022/11/16 00:43:24;;;;;;;75.77;37.60;;;8.00;99.90;;;;;;4409997;28;660540;-64
2022/11/16 00:46:12;;;;;;;82.47;37.40;;;8.00;99.90;;;;;;4394281;28;659699;-64
2022/11/16 00:48:59;;;;;;;78.07;37.17;;;8.00;99.90;;;;;;4413057;28;659445;-64
2022/11/16 00:51:46;;;;;;;83.57;39.13;;;8.00;99.90;;;;;;4394332;28;659636;-64
2022/11/16 00:54:33;;;;;;;83.93;39.53;;;7.90;99.90;;;;;;4412857;28;661362;-64
2022/11/16 00:57:21;;;;;;;79.13;37.27;;;7.90;99.90;;;;;;4394029;28;659468;-64
2022/11/16 01:00:09;;;;;;;88.33;38.93;;;7.90;99.90;;;;;;4411927;28;660446;-64
2022/11/16 01:02:58;;;;;;;86.17;38.50;;;8.00;99.90;;;;;;4864752;28;542138;-64
2022/11/16 01:05:45;;;;;;;83.80;38.47;;;8.00;99.90;;;;;;4404964;28;659611;-65
2022/11/16 01:08:32;;;;;;;85.83;39.97;;;8.10;99.90;;;;;;4413114;28;660098;-64
2022/11/16 01:14:24;;;;;;;84.20;40.57;;;8.20;99.90;;;;;;4389355;28;659827;-64
2022/11/16 01:17:11;;;;;;;82.37;39.13;;;8.30;99.90;;;;;;4393772;28;659644;-64
2022/11/16 01:19:59;;;;;;;82.47;38.90;;;8.20;99.90;;;;;;4412506;28;660781;-64
2022/11/16 01:22:46;;;;;;;81.63;38.80;;;8.20;99.90;;;;;;4393820;28;659512;-64
2022/11/16 01:25:33;;;;;;;88.30;40.03;;;8.20;99.90;;;;;;4412569;28;659882;-64
2022/11/16 01:28:21;;;;;;;78.77;38.33;;;8.20;99.90;;;;;;4393805;28;659442;-64
2022/11/16 01:31:08;;;;;;;86.00;41.93;;;8.20;99.90;;;;;;4416707;28;660360;-64
2022/11/16 01:33:55;;;;;;;84.87;38.97;;;8.20;99.90;;;;;;4393169;28;659929;-65
2022/11/16 01:36:44;;;;;;;79.53;38.17;;;8.10;99.90;;;;;;4412109;28;660488;-64
2022/11/16 01:39:31;;;;;;;80.10;38.00;;;8.10;99.90;;;;;;4392705;28;659613;-64
2022/11/16 01:42:18;;;;;;;78.53;38.20;;;8.20;99.90;;;;;;4415483;28;660290;-64
2022/11/16 01:45:10;;;;;;;84.23;38.60;;;8.20;99.90;;;;;;4394115;28;659637;-65
2022/11/16 01:47:57;;;;;;;80.10;38.30;;;8.30;99.90;;;;;;4389966;28;661138;-64
2022/11/16 01:50:44;;;;;;;88.60;40.73;;;8.20;99.90;;;;;;4417582;28;659462;-64
2022/11/16 01:53:32;;;;;;;90.93;42.37;;;8.10;99.90;;;;;;4393141;28;660229;-64
2022/11/16 01:56:20;;;;;;;83.63;38.97;;;8.10;99.90;;;;;;4412650;28;660403;-64
2022/11/16 01:59:07;;;;;;;82.80;39.53;;;8.00;99.90;;;;;;4389717;28;660719;-64
2022/11/16 02:01:54;;;;;;;87.90;40.90;;;8.00;99.90;;;;;;4412763;28;660132;-64
2022/11/16 02:04:41;;;;;;;92.57;41.20;;;8.00;99.90;;;;;;4390076;28;659493;-64
2022/11/16 02:10:51;;;;;;;92.53;42.93;;;8.10;99.90;;;;;;4389684;28;660188;-64
2022/11/16 02:13:42;;;;;;;94.53;42.37;;;8.00;99.90;;;;;;4389874;28;659900;-64
2022/11/16 02:16:33;;;;;;;99.97;43.30;;;8.00;99.90;;;;;;4389530;28;659998;-64
2022/11/16 02:19:40;;;;;;;105.20;42.80;;;7.90;99.90;;;;;;4380272;28;659371;-65
2022/11/16 02:22:36;;;;;;;96.03;42.97;;;7.80;99.90;;;;;;4362665;28;660761;-64
2022/11/16 02:25:26;;;;;;;93.13;41.73;;;7.90;99.90;;;;;;4393332;28;659943;-64
2022/11/16 02:28:27;;;;;;;98.50;43.23;;;7.80;99.90;;;;;;4389714;28;660806;-64
2022/11/16 02:31:17;;;;;;;98.27;41.57;;;7.90;99.90;;;;;;4389801;28;659698;-64
2022/11/16 02:34:04;;;;;;;87.07;41.60;;;8.00;99.90;;;;;;4383864;28;660478;-64
2022/11/16 02:36:52;;;;;;;92.10;42.00;;;8.00;99.90;;;;;;4393363;28;660807;-63
2022/11/16 02:39:39;;;;;;;91.23;41.87;;;7.90;99.90;;;;;;4412316;28;660395;-64
2022/11/16 02:42:29;;;;;;;92.23;40.33;;;8.00;99.90;;;;;;4389105;28;659557;-64
2022/11/16 02:45:18;;;;;;;100.53;40.13;;;7.90;99.90;;;;;;4393292;28;660081;-64
2022/11/16 02:48:08;;;;;;;97.80;42.50;;;7.90;99.90;;;;;;4391921;28;660797;-65
2022/11/16 02:50:55;;;;;;;97.27;42.63;;;7.90;99.90;;;;;;4392943;28;659902;-64
2022/11/16 02:53:50;;;;;;;104.67;42.17;;;7.80;99.90;;;;;;4412074;28;660755;-64
2022/11/16 02:56:42;;;;;;;92.30;42.40;;;7.90;99.90;;;;;;4364848;28;661503;-64
2022/11/16 02:59:30;;;;;;;92.60;41.07;;;7.90;99.90;;;;;;4371798;28;660191;-63
2022/11/16 03:02:22;;;;;;;85.00;39.50;;;7.80;99.90;;;;;;4827118;28;661652;-64
2022/11/16 03:05:13;;;;;;;98.20;40.67;;;7.90;99.90;;;;;;4368813;28;660283;-66
2022/11/16 03:08:14;;;;;;;97.00;41.80;;;7.90;99.90;;;;;;4375622;28;660017;-66
2022/11/16 03:14:07;;;;;;;88.13;40.40;;;7.90;99.90;;;;;;4353068;28;660371;-64
2022/11/16 03:16:56;;;;;;;85.07;38.30;;;7.90;99.90;;;;;;4394319;28;659858;-64
2022/11/16 03:19:45;;;;;;;83.70;39.60;;;7.90;99.90;;;;;;4371690;28;660194;-64
2022/11/16 03:22:35;;;;;;;83.10;38.90;;;8.00;99.90;;;;;;4371623;28;661520;-65
2022/11/16 03:25:22;;;;;;;86.37;39.33;;;8.00;99.90;;;;;;4371869;28;661155;-64
2022/11/16 03:28:12;;;;;;;87.10;39.57;;;8.00;99.90;;;;;;4394408;28;660253;-64
2022/11/16 03:31:01;;;;;;;92.53;40.93;;;8.00;99.90;;;;;;4371385;28;659795;-64
2022/11/16 03:33:49;;;;;;;91.60;42.20;;;8.00;99.90;;;;;;4371281;28;660254;-64
2022/11/16 03:36:37;;;;;;;92.93;42.60;;;8.00;99.90;;;;;;4377058;28;659772;-65
2022/11/16 03:39:28;;;;;;;89.90;40.87;;;8.00;99.90;;;;;;4397551;28;659365;-64
2022/11/16 03:42:15;;;;;;;123.57;40.43;;;8.00;99.90;;;;;;4355200;28;659525;-64
2022/11/16 03:45:03;;;;;;;99.23;41.90;;;8.10;99.90;;;;;;4395270;28;661538;-64
2022/11/16 03:47:50;;;;;;;89.00;40.90;;;8.20;99.90;;;;;;4388903;28;659666;-65
2022/11/16 03:50:37;;;;;;;149.97;43.63;;;8.10;99.90;;;;;;4396927;28;660559;-64
2022/11/16 03:53:24;;;;;;;93.63;42.60;;;8.00;99.90;;;;;;4394716;28;660432;-64
2022/11/16 03:56:13;;;;;;;96.30;44.07;;;8.00;99.90;;;;;;4377759;28;659769;-64
2022/11/16 03:59:00;;;;;;;98.60;43.00;;;8.00;99.90;;;;;;4379224;28;660283;-66
2022/11/16 04:01:47;;;;;;;101.18;41.78;;;8.00;99.90;;;;;;4402446;28;660672;-64
2022/11/16 04:26:09;;;;;;;54.83;26.90;;;8.00;99.90;;;;;;4375303;28;659538;-64
2022/11/16 04:28:57;;;;;;;61.50;28.50;;;8.00;99.90;;;;;;4379512;28;660722;-64
2022/11/16 04:37:54;;;;;;;62.67;27.07;;;8.00;99.90;;;;;;4375211;28;659969;-64
2022/11/16 04:40:41;;;;;;;52.90;25.63;;;8.00;99.90;;;;;;4378815;28;660044;-65
2022/11/16 04:43:27;;;;;;;54.53;25.95;;;7.90;99.90;;;;;;4414476;28;660397;-65
2022/11/16 04:49:20;;;;;;;59.07;27.20;;;8.00;99.90;;;;;;4367761;28;659704;-64
2022/11/16 04:52:07;;;;;;;62.47;28.05;;;8.00;99.90;;;;;;4417071;28;660159;-64
2022/11/16 04:54:55;;;;;;;68.13;30.97;;;8.00;99.90;;;;;;4406414;28;659634;-64
2022/11/16 04:57:42;;;;;;;60.47;28.93;;;8.00;99.90;;;;;;4386103;28;659997;-64
2022/11/16 05:00:29;;;;;;;64.57;28.40;;;8.10;99.90;;;;;;4489704;28;659792;-64
2022/11/16 05:03:17;;;;;;;57.30;28.00;;;8.10;99.90;;;;;;4789776;28;537073;-64
2022/11/16 05:06:05;;;;;;;62.67;29.00;;;8.00;99.90;;;;;;4409190;28;659596;-65
2022/11/16 05:08:52;;;;;;;73.30;30.87;;;8.00;99.90;;;;;;4413823;28;661025;-64
2022/11/16 05:11:40;;;;;;;71.03;32.80;;;8.00;99.90;;;;;;4408441;28;659410;-66
2022/11/16 05:14:27;;;;;;;70.73;31.73;;;8.00;99.90;;;;;;4417811;28;660091;-64
2022/11/16 05:17:14;;;;;;;80.70;34.07;;;8.00;99.90;;;;;;4413709;28;659850;-64
2022/11/16 05:24:32;;;;;;;80.90;34.40;;;7.90;99.90;;;;;;4390791;28;660013;-64
2022/11/16 05:26:15;;;;;;;72.83;33.37;;;7.90;99.90;;;;;;4367138;28;659601;-66
2022/11/16 05:29:02;;;;;;;73.25;34.47;;;8.00;99.90;;;;;;4417751;28;660681;-64
2022/11/16 05:31:49;;;;;;;77.13;34.03;;;7.90;99.90;;;;;;4413606;28;659651;-64
2022/11/16 05:34:36;;;;;;;76.17;34.47;;;7.90;99.90;;;;;;4390579;28;660348;-64
2022/11/16 05:37:25;;;;;;;79.97;34.57;;;7.90;99.90;;;;;;4413547;28;660379;-64
2022/11/16 05:40:12;;;;;;;74.87;34.10;;;7.90;99.90;;;;;;4390173;28;660503;-64
2022/11/16 05:43:00;;;;;;;81.53;36.97;;;7.90;99.90;;;;;;4411203;28;659687;-65
2022/11/16 05:45:47;;;;;;;78.65;35.70;;;7.90;99.90;;;;;;4417271;28;660211;-64
2022/11/16 05:48:34;;;;;;;75.77;32.70;;;8.00;99.90;;;;;;4413494;28;659696;-64
2022/11/16 05:51:21;;;;;;;314.77;37.13;;;8.00;99.90;;;;;;4391382;28;660516;-64
2022/11/16 05:54:11;;;;;;;420.97;38.33;;;8.10;99.90;;;;;;4411805;28;662189;-64
2022/11/16 05:56:58;;;;;;;104.30;31.73;;;8.10;99.90;;;;;;4388838;28;661415;-64
2022/11/16 05:59:45;;;;;;;142.23;34.63;;;8.10;99.90;;;;;;4392258;28;661863;-65
2022/11/16 06:02:32;;;;;;;75.88;34.70;;;8.10;99.90;;;;;;4415896;28;660566;-64
2022/11/16 06:05:19;;;;;;;78.20;33.87;;;8.10;99.90;;;;;;4412779;28;660706;-64
2022/11/16 06:08:06;;;;;;;85.07;34.63;;;8.00;99.90;;;;;;4390574;28;659656;-64
2022/11/16 06:10:55;;;;;;;92.33;35.90;;;7.90;99.90;;;;;;4411285;28;659511;-65
2022/11/16 06:13:42;;;;;;;83.80;35.67;;;7.90;99.90;;;;;;4389344;28;660320;-64
2022/11/16 06:16:29;;;;;;;101.40;36.77;;;7.90;99.90;;;;;;4412520;28;659691;-64
2022/11/16 06:19:16;;;;;;;89.20;35.30;;;7.90;99.90;;;;;;4392396;28;660484;-64
2022/11/16 06:22:03;;;;;;;98.13;34.07;;;8.10;99.90;;;;;;4412530;28;659892;-64
2022/11/16 06:24:50;;;;;;;142.37;35.83;;;8.00;99.90;;;;;;4392829;28;659939;-64
2022/11/16 06:27:39;;;;;;;94.87;37.93;;;8.00;99.90;;;;;;4409914;28;661819;-65
2022/11/16 06:30:26;;;;;;;528.27;49.90;;;8.00;99.90;;;;;;4392530;28;659968;-64
2022/11/16 06:33:13;;;;;;;106.93;42.60;;;8.00;99.90;;;;;;4410315;28;661224;-64
2022/11/16 06:36:00;;;;;;;346.27;48.60;;;8.00;99.90;;;;;;4391156;28;660978;-64
2022/11/16 06:38:48;;;;;;;209.70;47.47;;;8.00;99.90;;;;;;4409685;28;661761;-64
2022/11/16 06:41:35;;;;;;;329.97;53.40;;;8.00;99.90;;;;;;4402909;28;660761;-65
2022/11/16 06:44:23;;;;;;;196.73;52.50;;;8.00;99.90;;;;;;4415435;28;660880;-64
2022/11/16 06:47:11;;;;;;;279.50;50.47;;;7.90;99.90;;;;;;4391809;28;660503;-64
2022/11/16 06:49:58;;;;;;;410.80;53.23;;;7.90;99.90;;;;;;4415164;28;661576;-64
2022/11/16 06:52:45;;;;;;;163.83;50.40;;;7.90;99.90;;;;;;4402245;28;660439;-65
2022/11/16 06:55:32;;;;;;;202.53;50.87;;;7.90;99.90;;;;;;4410769;28;662237;-64
2022/11/16 06:58:20;;;;;;;138.00;47.63;;;7.90;99.90;;;;;;4397406;28;660669;-65
2022/11/16 07:01:09;;;;;;;286.95;50.50;;;8.00;99.90;;;;;;4636395;28;661987;-64
2022/11/16 07:03:56;;;;;;;895.93;61.53;;;8.00;99.90;;;;;;4635253;28;537969;-63
2022/11/16 07:06:43;;;;;;;273.80;45.83;;;8.00;99.90;;;;;;4409918;28;661420;-64
2022/11/16 07:09:31;;;;;;;244.20;44.70;;;8.00;99.90;;;;;;4391022;28;661061;-64
2022/11/16 07:12:18;;;;;;;193.10;41.90;;;8.00;99.90;;;;;;4413648;28;662158;-64
2022/11/16 07:15:06;;;;;;;120.53;41.03;;;8.00;99.90;;;;;;4395431;28;661037;-66
2022/11/16 07:17:54;;;;;;;164.80;39.93;;;8.00;99.90;;;;;;4412893;28;660812;-64
2022/11/16 07:20:41;;;;;;;272.73;39.03;;;8.00;99.90;;;;;;4387147;28;661711;-64
2022/11/16 07:23:30;;;;;;;90.33;35.30;;;8.10;99.90;;;;;;4409596;28;661780;-64
2022/11/16 07:26:17;;;;;;;94.70;32.77;;;8.00;99.90;;;;;;4388005;28;661364;-64
2022/11/16 07:29:04;;;;;;;83.63;33.87;;;8.00;99.90;;;;;;4415082;28;659910;-63
2022/11/16 07:31:51;;;;;;;82.97;30.83;;;7.90;99.90;;;;;;4392460;28;660005;-64
2022/11/16 07:34:40;;;;;;;80.43;31.57;;;7.90;99.90;;;;;;4411437;28;659254;-64
2022/11/16 07:37:27;;;;;;;78.07;30.03;;;8.00;99.90;;;;;;4388701;28;660838;-64
2022/11/16 07:40:14;;;;;;;76.80;30.63;;;8.00;99.90;;;;;;4411560;28;660382;-64
2022/11/16 07:43:01;;;;;;;65.37;28.40;;;7.90;99.90;;;;;;4390870;28;659977;-64
2022/11/16 07:45:51;;;;;;;54.70;25.67;;;7.90;99.90;;;;;;4411509;28;660748;-64
2022/11/16 07:48:38;;;;;;;59.37;27.10;;;7.80;99.90;;;;;;4387965;28;660971;-64
2022/11/16 07:51:26;;;;;;;60.67;28.33;;;7.90;99.90;;;;;;4392666;28;659640;-65
2022/11/16 07:54:14;;;;;;;58.53;26.20;;;7.90;99.90;;;;;;4410677;28;660065;-64
2022/11/16 07:57:01;;;;;;;63.07;28.57;;;7.90;99.90;;;;;;4391277;28;659512;-64
2022/11/16 07:59:48;;;;;;;59.47;27.35;;;7.90;99.90;;;;;;4411855;28;660797;-64
2022/11/16 08:02:35;;;;;;;58.80;27.40;;;7.90;99.90;;;;;;4397659;28;659693;-65
2022/11/16 08:05:22;;;;;;;67.68;32.85;;;7.90;99.90;;;;;;4415603;28;660998;-63
2022/11/16 08:08:11;;;;;;;71.67;33.77;;;7.90;99.90;;;;;;4411396;28;659826;-63
2022/11/16 08:11:01;;;;;;;74.63;32.90;;;7.90;99.90;;;;;;4388487;28;661070;-64
2022/11/16 08:13:48;;;;;;;73.33;34.37;;;7.90;99.90;;;;;;4388477;28;660608;-64
2022/11/16 08:16:35;;;;;;;77.80;33.53;;;8.00;99.90;;;;;;4396439;28;659613;-65
2022/11/16 08:19:22;;;;;;;70.87;34.57;;;8.00;99.90;;;;;;4415207;28;659728;-63
2022/11/16 08:22:09;;;;;;;68.53;33.30;;;7.90;99.90;;;;;;4412459;28;659827;-63
2022/11/16 08:24:58;;;;;;;82.30;34.30;;;8.00;99.90;;;;;;4391680;28;659951;-64
2022/11/16 08:27:46;;;;;;;74.80;36.63;;;7.90;99.90;;;;;;4404215;28;659797;-65
2022/11/16 08:30:33;;;;;;;89.87;39.13;;;7.90;99.90;;;;;;4414386;28;661012;-64
2022/11/16 08:33:22;;;;;;;97.50;41.50;;;7.80;99.90;;;;;;4395437;28;660076;-64
2022/11/16 08:36:11;;;;;;;94.17;41.10;;;7.80;99.90;;;;;;4414204;28;659986;-63
2022/11/16 08:38:58;;;;;;;90.47;39.00;;;7.90;99.90;;;;;;4391276;28;660622;-63
2022/11/16 08:41:47;;;;;;;99.23;42.23;;;7.80;99.90;;;;;;4394087;28;659756;-64
2022/11/16 08:44:34;;;;;;;87.50;38.33;;;7.80;99.90;;;;;;4414114;28;659732;-63
2022/11/16 08:47:21;;;;;;;83.07;38.43;;;7.90;99.90;;;;;;4395424;28;659664;-64
2022/11/16 08:50:08;;;;;;;86.87;37.97;;;7.90;99.90;;;;;;4413998;28;659878;-63
2022/11/16 08:52:56;;;;;;;98.43;41.03;;;7.90;99.90;;;;;;4394134;28;659699;-64
2022/11/16 08:55:43;;;;;;;87.10;40.17;;;7.80;99.90;;;;;;4413271;28;660771;-63
2022/11/16 08:58:32;;;;;;;81.27;37.70;;;7.90;99.90;;;;;;4389781;28;659452;-63
2022/11/16 09:01:20;;;;;;;75.27;35.23;;;7.90;99.90;;;;;;4678848;28;660223;-64
2022/11/16 09:04:07;;;;;;;74.47;35.00;;;7.90;99.90;;;;;;4599108;28;589043;-64
2022/11/16 09:06:54;;;;;;;73.37;33.43;;;8.00;99.90;;;;;;4418093;28;658927;-63
2022/11/16 09:09:41;;;;;;;73.53;34.77;;;8.00;99.90;;;;;;4394698;28;661212;-63
2022/11/16 09:12:28;;;;;;;70.17;34.03;;;8.10;99.90;;;;;;4413591;28;660174;-64
2022/11/16 09:15:18;;;;;;;77.97;36.40;;;8.10;99.90;;;;;;4394765;28;659566;-64
2022/11/16 09:18:05;;;;;;;77.10;37.05;;;8.20;99.90;;;;;;4399679;28;659706;-64
2022/11/16 09:20:52;;;;;;;78.03;37.27;;;8.20;99.90;;;;;;4417477;28;660263;-64
2022/11/16 09:23:39;;;;;;;84.07;40.47;;;8.30;99.90;;;;;;4413763;28;659990;-64
2022/11/16 09:26:27;;;;;;;74.70;37.33;;;8.20;99.90;;;;;;4394870;28;659725;-63
2022/11/16 09:29:14;;;;;;;72.83;34.47;;;8.20;99.90;;;;;;4412509;28;660409;-64
2022/11/16 09:32:03;;;;;;;73.70;34.80;;;8.20;99.90;;;;;;4394861;28;660144;-64
2022/11/16 09:34:50;;;;;;;61.57;31.77;;;8.20;99.90;;;;;;4393660;28;659814;-65
2022/11/16 09:37:37;;;;;;;64.43;31.93;;;8.20;99.90;;;;;;4417206;28;660978;-64
2022/11/16 09:40:27;;;;;;;73.73;34.83;;;8.20;99.90;;;;;;4413478;28;660247;-64
2022/11/16 09:43:19;;;;;;;64.43;31.07;;;8.30;99.90;;;;;;4390140;28;660365;-64
2022/11/16 09:46:13;;;;;;;63.93;30.93;;;8.30;99.90;;;;;;4361211;28;660571;-64
2022/11/16 09:49:02;;;;;;;74.70;35.93;;;8.30;99.90;;;;;;4360607;28;659956;-63
2022/11/16 09:51:51;;;;;;;68.07;31.50;;;8.20;99.90;;;;;;4410176;28;659294;-65
2022/11/16 09:54:39;;;;;;;79.23;37.20;;;8.20;99.90;;;;;;4411966;28;660430;-64
2022/11/16 09:57:29;;;;;;;76.67;36.77;;;8.20;99.90;;;;;;4389542;28;659866;-64
2022/11/16 10:00:19;;;;;;;79.23;37.00;;;8.30;99.90;;;;;;4388950;28;659839;-64
2022/11/16 10:03:09;;;;;;;82.43;37.30;;;8.30;99.90;;;;;;4394098;28;659746;-65
2022/11/16 10:06:01;;;;;;;65.75;33.05;;;8.30;99.90;;;;;;4387262;28;659798;-64
2022/11/16 10:08:50;;;;;;;66.57;30.33;;;8.20;99.90;;;;;;4390035;28;660864;-64
2022/11/16 10:11:48;;;;;;;60.77;28.90;;;8.20;99.90;;;;;;4389820;28;661013;-63
2022/11/16 10:14:56;;;;;;;54.23;26.80;;;8.10;99.90;;;;;;4371191;28;659742;-64
2022/11/16 10:17:55;;;;;;;67.63;33.57;;;8.20;99.90;;;;;;4389586;28;660076;-64
2022/11/16 10:21:04;;;;;;;59.57;30.37;;;8.20;99.90;;;;;;4367159;28;660034;-64
2022/11/16 10:24:00;;;;;;;57.07;30.67;;;8.20;99.90;;;;;;4366784;28;660079;-64
2022/11/16 10:26:49;;;;;;;58.57;30.67;;;8.10;99.90;;;;;;4389473;28;659696;-64
2022/11/16 10:29:44;;;;;;;57.00;28.83;;;8.00;99.90;;;;;;4389867;28;660548;-64
2022/11/16 10:32:31;;;;;;;55.23;29.13;;;8.00;99.90;;;;;;4393586;28;660121;-64
2022/11/16 10:35:22;;;;;;;63.73;33.03;;;7.90;99.90;;;;;;4412355;28;660939;-64
2022/11/16 10:38:13;;;;;;;56.38;28.95;;;7.90;99.90;;;;;;4393698;28;659846;-63
2022/11/16 10:41:02;;;;;;;58.13;28.20;;;7.80;99.90;;;;;;4382054;28;659947;-65
2022/11/16 10:43:49;;;;;;;47.50;24.10;;;7.80;99.90;;;;;;4395035;28;659770;-64
2022/11/16 10:46:38;;;;;;;40.53;22.47;;;7.80;99.90;;;;;;4376444;28;660465;-64
2022/11/16 10:49:28;;;;;;;41.27;21.43;;;7.80;99.90;;;;;;4387353;28;659831;-66
2022/11/16 10:52:15;;;;;;;38.17;21.10;;;7.70;99.90;;;;;;4379543;28;660531;-65
2022/11/16 10:55:04;;;;;;;37.43;20.83;;;7.70;99.90;;;;;;4398947;28;659516;-64
2022/11/16 10:57:55;;;;;;;43.00;22.97;;;7.70;99.90;;;;;;4374913;28;659705;-64
2022/11/16 11:00:46;;;;;;;45.60;23.67;;;7.70;99.90;;;;;;4503997;28;660962;-64
2022/11/16 11:03:33;;;;;;;42.73;21.83;;;7.60;99.90;;;;;;4712569;28;536931;-64
2022/11/16 11:06:20;;;;;;;38.83;20.80;;;7.60;99.90;;;;;;4384431;28;660017;-65
2022/11/16 11:09:24;;;;;;;34.97;18.70;;;7.60;99.90;;;;;;4394712;28;660373;-64
2022/11/16 11:15:22;;;;;;;31.27;16.63;;;7.60;99.90;;;;;;4364181;28;660159;-65
2022/11/16 11:18:16;;;;;;;31.43;17.33;;;7.60;99.90;;;;;;4393543;28;659221;-64
2022/11/16 11:21:07;;;;;;;27.43;15.57;;;7.60;99.90;;;;;;4372015;28;660155;-64
2022/11/16 11:23:55;;;;;;;29.33;16.60;;;7.50;99.90;;;;;;4371773;28;660171;-63
2022/11/16 11:26:42;;;;;;;26.93;15.43;;;7.50;99.90;;;;;;4371789;28;660567;-64
2022/11/16 11:29:31;;;;;;;26.67;15.60;;;7.50;99.90;;;;;;4391833;28;660489;-64
2022/11/16 11:32:18;;;;;;;26.57;15.17;;;7.50;99.90;;;;;;4371938;28;660322;-63
2022/11/16 11:35:06;;;;;;;27.83;15.23;;;7.40;99.90;;;;;;4375510;28;659913;-64
2022/11/16 11:37:55;;;;;;;26.87;15.13;;;7.40;99.90;;;;;;4394742;28;659733;-64
2022/11/16 11:40:42;;;;;;;37.17;19.47;;;7.40;99.90;;;;;;4371665;28;660708;-64
2022/11/16 11:43:29;;;;;;;36.10;20.80;;;7.40;99.90;;;;;;4409626;28;659313;-63
2022/11/16 11:46:21;;;;;;;32.83;20.33;;;7.30;99.90;;;;;;4392854;28;659569;-64
2022/11/16 11:49:12;;;;;;;43.37;24.23;;;7.30;99.90;;;;;;4388681;28;660165;-64
2022/11/16 11:52:00;;;;;;;40.00;22.97;;;7.20;99.90;;;;;;4388832;28;660267;-64
2022/11/16 11:54:47;;;;;;;29.67;16.50;;;7.30;99.90;;;;;;4393159;28;661105;-64
2022/11/16 11:57:36;;;;;;;31.47;16.57;;;7.30;99.90;;;;;;4393201;28;659515;-64
2022/11/16 12:00:24;;;;;;;32.23;17.80;;;7.30;99.90;;;;;;4415444;28;660077;-63
2022/11/16 12:03:44;;;;;;;28.00;16.27;;;7.30;99.90;;;;;;4396511;28;660319;-64
2022/11/16 12:06:32;;;;;;;28.20;15.53;;;7.30;99.90;;;;;;4393710;28;660116;-64
2022/11/16 12:09:25;;;;;;;41.90;19.63;;;7.30;99.90;;;;;;4415258;28;659647;-63
2022/11/16 12:12:20;;;;;;;46.30;19.13;;;7.20;99.90;;;;;;4372867;28;660315;-64
2022/11/16 12:15:18;;;;;;;41.77;21.33;;;7.10;99.90;;;;;;4369113;28;660485;-64
2022/11/16 12:18:13;;;;;;;49.43;23.70;;;7.10;99.90;;;;;;4364961;28;659947;-64
2022/11/16 12:21:05;;;;;;;41.63;20.97;;;7.10;99.90;;;;;;4373225;28;660277;-64
2022/11/16 12:24:10;;;;;;;44.73;22.10;;;7.10;99.90;;;;;;4393528;28;660466;-65
2022/11/16 12:27:01;;;;;;;44.77;21.70;;;7.00;99.90;;;;;;4373143;28;659995;-64
2022/11/16 12:29:54;;;;;;;44.55;19.55;;;7.00;99.90;;;;;;4391891;28;660538;-63
2022/11/16 12:32:59;;;;;;;29.93;16.30;;;7.10;99.90;;;;;;4395705;28;659510;-64
2022/11/16 12:35:51;;;;;;;27.67;15.93;;;7.10;99.90;;;;;;4370117;28;660063;-63
2022/11/16 12:38:48;;;;;;;26.70;15.13;;;7.00;99.90;;;;;;4391696;28;661191;-64
2022/11/16 12:42:02;;;;;;;26.13;15.20;;;7.00;99.90;;;;;;4375233;28;659504;-65
2022/11/16 12:44:57;;;;;;;28.07;16.23;;;7.10;99.90;;;;;;4391260;28;659792;-64
2022/11/16 12:47:55;;;;;;;31.07;16.27;;;7.00;99.90;;;;;;4391374;28;660298;-64
2022/11/16 12:50:49;;;;;;;23.73;13.40;;;6.90;99.90;;;;;;4391175;28;660890;-64
2022/11/16 12:53:47;;;;;;;26.73;15.40;;;6.90;99.90;;;;;;4395096;28;660079;-64
2022/11/16 12:56:39;;;;;;;24.53;13.43;;;7.00;99.90;;;;;;4391341;28;660001;-64
2022/11/16 12:59:45;;;;;;;24.37;13.53;;;6.90;99.90;;;;;;4378133;28;659439;-64
2022/11/16 13:02:43;;;;;;;25.50;14.37;;;7.00;99.90;;;;;;4354686;28;660361;-63
2022/11/16 13:05:40;;;;;;;25.73;15.63;;;7.00;99.90;;;;;;4357027;28;659975;-65
2022/11/16 13:08:40;;;;;;;22.87;13.77;;;7.10;99.90;;;;;;4349811;28;661220;-64
2022/11/16 13:11:30;;;;;;;19.60;12.05;;;7.10;99.90;;;;;;4350813;28;660570;-63
2022/11/16 13:14:19;;;;;;;24.27;12.43;;;7.00;99.90;;;;;;4377302;28;660390;-63
2022/11/16 13:17:06;;;;;;;17.13;11.20;;;7.00;99.90;;;;;;4377274;28;659721;-64
2022/11/16 13:20:03;;;;;;;19.83;11.00;;;7.00;99.90;;;;;;4396398;28;660231;-64
2022/11/16 13:22:58;;;;;;;19.73;10.67;;;6.90;99.90;;;;;;4351471;28;660613;-64
2022/11/16 13:25:48;;;;;;;21.57;11.67;;;7.00;99.90;;;;;;4354622;28;659701;-64
2022/11/16 13:28:38;;;;;;;40.97;17.53;;;6.80;99.90;;;;;;4385728;28;659893;-65
2022/11/16 13:31:29;;;;;;;63.80;29.37;;;6.80;99.90;;;;;;4377645;28;659630;-64
2022/11/16 13:34:20;;;;;;;96.00;48.17;;;6.70;99.90;;;;;;4377089;28;659930;-64
2022/11/16 13:37:40;;;;;;;74.40;40.87;;;6.70;99.90;;;;;;4373372;28;660085;-64
2022/11/16 13:40:29;;;;;;;33.17;17.27;;;6.70;99.90;;;;;;4373268;28;659865;-64
2022/11/16 13:43:17;;;;;;;28.47;16.37;;;6.70;99.90;;;;;;4375448;28;659730;-64
2022/11/16 13:46:06;;;;;;;17.00;11.37;;;6.70;99.90;;;;;;4395127;28;660396;-64
2022/11/16 13:48:53;;;;;;;20.70;11.67;;;6.70;99.90;;;;;;4372191;28;660676;-64
2022/11/16 13:51:40;;;;;;;26.58;14.43;;;6.80;99.90;;;;;;4380934;28;660297;-65
2022/11/16 13:54:28;;;;;;;22.73;12.73;;;6.70;99.90;;;;;;4394882;28;661097;-64
2022/11/16 13:57:24;;;;;;;12.00;7.60;;;6.70;99.90;;;;;;4376077;28;659688;-65
2022/11/16 14:00:13;;;;;;;15.20;7.77;;;6.60;99.90;;;;;;4378882;28;658717;-64
2022/11/16 14:03:30;;;;;;;14.47;6.90;;;6.50;99.90;;;;;;4379207;28;658885;-64
2022/11/16 14:06:55;;;;;;;20.03;8.87;;;6.50;99.90;;;;;;4351058;28;658795;-64
2022/11/16 14:09:47;;;;;;;14.10;7.20;;;6.30;99.90;;;;;;4374842;28;658950;-64
2022/11/16 14:12:58;;;;;;;11.90;6.80;;;6.30;99.90;;;;;;4374768;28;658463;-64
2022/11/16 14:15:45;;;;;;;14.43;7.63;;;6.30;99.90;;;;;;4359256;28;658923;-65
2022/11/16 14:18:36;;;;;;;14.02;8.48;;;6.30;99.90;;;;;;4401571;28;658659;-64
2022/11/16 14:21:30;;;;;;;12.47;7.03;;;6.20;99.90;;;;;;4374075;28;659148;-64
2022/11/16 14:24:21;;;;;;;12.93;6.93;;;6.20;99.90;;;;;;4351968;28;659250;-63
2022/11/16 14:27:14;;;;;;;12.80;7.43;;;6.20;99.90;;;;;;4378347;28;659579;-64
2022/11/16 14:30:03;;;;;;;14.60;9.00;;;6.10;99.90;;;;;;4351344;28;658821;-64
2022/11/16 14:32:52;;;;;;;14.37;8.20;;;6.10;99.90;;;;;;4378585;28;658670;-64
2022/11/16 14:35:40;;;;;;;16.67;9.60;;;6.10;99.90;;;;;;4396495;28;658608;-64
2022/11/16 14:38:30;;;;;;;22.63;11.70;;;5.90;99.90;;;;;;4374460;28;659928;-63
2022/11/16 14:41:19;;;;;;;26.17;13.70;;;5.90;99.90;;;;;;4373674;28;661039;-63
2022/11/16 14:44:08;;;;;;;32.03;14.93;;;5.80;99.90;;;;;;4392698;28;661610;-63
2022/11/16 14:46:55;;;;;;;30.17;13.63;;;5.90;99.90;;;;;;4395612;28;659575;-65
2022/11/16 14:49:43;;;;;;;32.07;16.73;;;5.80;99.90;;;;;;4411185;28;660728;-63
2022/11/16 14:52:35;;;;;;;22.77;12.33;;;5.80;99.90;;;;;;4404331;28;659722;-65
2022/11/16 14:55:23;;;;;;;16.13;8.90;;;5.80;99.90;;;;;;4388141;28;660680;-63
2022/11/16 14:58:16;;;;;;;17.60;10.37;;;5.80;99.90;;;;;;4393768;28;659428;-66
2022/11/16 15:01:04;;;;;;;25.07;14.50;;;5.80;99.90;;;;;;4597250;28;660383;-64
2022/11/16 15:03:54;;;;;;;20.40;12.73;;;5.70;99.90;;;;;;4655097;28;536784;-64
2022/11/16 15:06:43;;;;;;;22.67;13.33;;;5.70;99.90;;;;;;4392193;28;659732;-64